createdAt,value
2019-03-10T00:01:49.358Z,14.40
2019-03-10T00:04:16.282Z,14.40
2019-03-10T00:06:42.433Z,14.40
2019-03-10T00:09:08.584Z,14.40
2019-03-10T00:11:34.732Z,14.40
2019-03-10T00:14:00.881Z,14.40
2019-03-10T00:16:27.039Z,14.40
2019-03-10T00:18:53.192Z,14.40
2019-03-10T00:21:19.332Z,14.40
2019-03-10T00:23:45.480Z,14.40
2019-03-10T00:26:11.640Z,14.40
2019-03-10T00:28:37.787Z,14.40
2019-03-10T00:31:03.935Z,14.40
2019-03-10T00:33:30.105Z,14.40
2019-03-10T00:35:56.273Z,14.40
2019-03-10T00:38:22.421Z,14.40
2019-03-10T00:40:48.589Z,14.40
2019-03-10T00:43:15.504Z,14.50
2019-03-10T00:45:41.654Z,14.50
2019-03-10T00:48:07.820Z,14.50
2019-03-10T00:50:33.971Z,14.50
2019-03-10T00:53:00.135Z,14.40
2019-03-10T00:55:27.049Z,14.40
2019-03-10T00:57:53.211Z,14.30
2019-03-10T01:00:19.366Z,14.40
2019-03-10T01:02:45.512Z,14.40
2019-03-10T01:05:11.669Z,14.40
2019-03-10T01:07:38.579Z,14.40
2019-03-10T01:10:04.725Z,14.40
2019-03-10T01:12:30.881Z,14.40
2019-03-10T01:14:57.028Z,14.40
2019-03-10T01:17:23.214Z,14.40
2019-03-10T01:19:50.130Z,14.40
2019-03-10T01:22:16.307Z,14.40
2019-03-10T01:24:42.469Z,14.40
2019-03-10T01:27:08.646Z,14.40
2019-03-10T01:29:34.799Z,14.40
2019-03-10T01:32:00.968Z,14.40
2019-03-10T01:34:27.293Z,14.40
2019-03-10T01:36:53.447Z,14.40
2019-03-10T01:39:20.360Z,14.40
2019-03-10T01:41:46.501Z,14.40
2019-03-10T01:44:12.644Z,14.40
2019-03-10T01:46:38.804Z,14.40
2019-03-10T01:49:04.953Z,14.40
2019-03-10T01:51:31.102Z,14.40
2019-03-10T01:53:57.247Z,14.40
2019-03-10T01:56:23.419Z,14.40
2019-03-10T01:58:49.568Z,14.40
2019-03-10T02:01:15.733Z,14.40
2019-03-10T02:03:42.647Z,14.40
2019-03-10T02:06:08.793Z,14.40
2019-03-10T02:08:34.941Z,14.40
2019-03-10T02:11:01.087Z,14.40
2019-03-10T02:13:27.271Z,14.40
2019-03-10T02:15:54.186Z,14.40
2019-03-10T02:18:20.349Z,14.40
2019-03-10T02:20:47.297Z,14.40
2019-03-10T02:23:13.448Z,14.40
2019-03-10T02:25:39.603Z,14.40
2019-03-10T02:28:05.754Z,14.40
2019-03-10T02:30:31.918Z,14.40
2019-03-10T02:32:58.069Z,14.40
2019-03-10T02:35:24.223Z,14.40
2019-03-10T02:37:50.383Z,14.40
2019-03-10T02:40:16.542Z,14.40
2019-03-10T02:42:42.701Z,14.40
2019-03-10T02:45:08.863Z,14.40
2019-03-10T02:47:35.013Z,14.40
2019-03-10T02:50:01.191Z,14.40
2019-03-10T02:52:27.350Z,14.40
2019-03-10T02:54:53.525Z,14.40
2019-03-10T02:57:19.676Z,14.40
2019-03-10T02:59:45.840Z,14.40
2019-03-10T03:02:11.990Z,14.40
2019-03-10T03:04:38.141Z,14.40
2019-03-10T03:07:04.294Z,14.40
2019-03-10T03:09:30.441Z,14.40
2019-03-10T03:11:56.605Z,14.40
2019-03-10T03:14:22.749Z,14.40
2019-03-10T03:16:48.900Z,14.40
2019-03-10T03:19:15.049Z,14.40
2019-03-10T03:21:43.470Z,14.40
2019-03-10T03:24:08.157Z,14.40
2019-03-10T03:26:34.309Z,14.40
2019-03-10T03:29:00.452Z,14.40
2019-03-10T03:31:26.611Z,14.40
2019-03-10T03:33:52.795Z,14.40
2019-03-10T03:36:18.961Z,14.40
2019-03-10T03:38:46.355Z,14.40
2019-03-10T03:41:12.504Z,14.40
2019-03-10T03:43:38.669Z,14.40
2019-03-10T03:46:04.851Z,14.40
2019-03-10T03:48:31.007Z,14.40
2019-03-10T03:50:57.157Z,14.40
2019-03-10T03:53:23.319Z,14.30
2019-03-10T03:55:49.480Z,14.40
2019-03-10T03:58:15.630Z,14.40
2019-03-10T04:00:41.781Z,14.40
2019-03-10T04:03:07.931Z,14.40
2019-03-10T04:05:34.093Z,14.40
2019-03-10T04:08:00.407Z,14.40
2019-03-10T04:10:26.561Z,14.40
2019-03-10T04:12:52.723Z,14.40
2019-03-10T04:15:18.887Z,14.40
2019-03-10T04:17:45.038Z,14.40
2019-03-10T04:20:11.209Z,14.40
2019-03-10T04:22:37.523Z,14.40
2019-03-10T04:25:03.666Z,14.40
2019-03-10T04:27:29.828Z,14.40
2019-03-10T04:29:56.144Z,14.40
2019-03-10T04:32:22.305Z,14.40
2019-03-10T04:34:48.460Z,14.40
2019-03-10T04:37:14.636Z,14.40
2019-03-10T04:39:40.780Z,14.40
2019-03-10T04:42:06.931Z,14.40
2019-03-10T04:44:33.088Z,14.40
2019-03-10T04:46:59.253Z,14.40
2019-03-10T04:49:25.405Z,14.40
2019-03-10T04:51:52.316Z,14.40
2019-03-10T04:54:18.469Z,14.40
2019-03-10T04:56:44.623Z,14.40
2019-03-10T04:59:11.260Z,14.40
2019-03-10T05:01:37.404Z,14.40
2019-03-10T05:04:03.561Z,14.40
2019-03-10T05:06:29.714Z,14.40
2019-03-10T05:08:55.864Z,14.40
2019-03-10T05:11:22.017Z,14.40
2019-03-10T05:13:48.166Z,14.30
2019-03-10T05:16:14.317Z,14.30
2019-03-10T05:18:41.230Z,14.40
2019-03-10T05:21:07.372Z,14.40
2019-03-10T05:23:33.546Z,14.30
2019-03-10T05:25:59.722Z,14.30
2019-03-10T05:28:25.883Z,14.30
2019-03-10T05:30:52.041Z,14.40
2019-03-10T05:33:18.194Z,14.30
2019-03-10T05:35:44.340Z,14.30
2019-03-10T05:38:10.492Z,14.30
2019-03-10T05:40:36.645Z,14.30
2019-03-10T05:43:02.790Z,14.40
2019-03-10T05:45:28.946Z,14.40
2019-03-10T05:47:55.094Z,14.30
2019-03-10T05:50:21.244Z,14.40
2019-03-10T05:52:47.393Z,14.30
2019-03-10T05:55:13.544Z,14.30
2019-03-10T05:57:39.873Z,14.30
2019-03-10T06:00:06.026Z,14.30
2019-03-10T06:02:32.192Z,14.30
2019-03-10T06:04:58.344Z,14.30
2019-03-10T06:07:24.489Z,14.30
2019-03-10T06:09:50.677Z,14.30
2019-03-10T06:12:16.826Z,14.30
2019-03-10T06:14:42.979Z,14.30
2019-03-10T06:17:09.124Z,14.30
2019-03-10T06:19:35.278Z,14.30
2019-03-10T06:22:01.424Z,14.30
2019-03-10T06:24:27.575Z,14.30
2019-03-10T06:26:53.722Z,14.30
2019-03-10T06:29:19.867Z,14.30
2019-03-10T06:31:46.025Z,14.30
2019-03-10T06:34:12.170Z,14.30
2019-03-10T06:36:38.316Z,14.30
2019-03-10T06:39:04.477Z,14.30
2019-03-10T06:41:30.618Z,14.30
2019-03-10T06:43:56.764Z,14.30
2019-03-10T06:46:22.913Z,14.30
2019-03-10T06:48:49.062Z,14.30
2019-03-10T06:51:15.212Z,14.30
2019-03-10T06:53:41.360Z,14.30
2019-03-10T06:56:08.275Z,14.30
2019-03-10T06:58:34.420Z,14.30
2019-03-10T07:01:00.594Z,14.30
2019-03-10T07:03:26.893Z,14.30
2019-03-10T07:05:53.042Z,14.30
2019-03-10T07:08:19.197Z,14.30
2019-03-10T07:10:45.353Z,14.30
2019-03-10T07:13:12.260Z,14.30
2019-03-10T07:15:38.422Z,14.30
2019-03-10T07:18:04.571Z,14.20
2019-03-10T07:20:30.721Z,13.90
2019-03-10T07:22:56.869Z,13.80
2019-03-10T07:25:23.025Z,13.80
2019-03-10T07:27:49.175Z,13.90
2019-03-10T07:30:15.324Z,14.10
2019-03-10T07:32:41.483Z,14.20
2019-03-10T07:35:07.626Z,14.40
2019-03-10T07:37:34.538Z,14.70
2019-03-10T07:40:00.695Z,14.80
2019-03-10T07:42:26.849Z,14.90
2019-03-10T07:44:52.996Z,15.00
2019-03-10T07:47:19.145Z,15.10
2019-03-10T07:49:45.300Z,15.20
2019-03-10T07:52:19.806Z,15.30
2019-03-10T07:54:37.811Z,15.40
2019-03-10T07:57:03.980Z,15.40
2019-03-10T07:59:30.131Z,15.40
2019-03-10T08:01:56.276Z,15.50
2019-03-10T08:04:22.441Z,15.60
2019-03-10T08:06:48.589Z,15.60
2019-03-10T08:09:14.732Z,15.60
2019-03-10T08:11:40.886Z,15.70
2019-03-10T08:14:07.037Z,15.70
2019-03-10T08:16:33.189Z,15.80
2019-03-10T08:18:59.340Z,15.90
2019-03-10T08:21:25.494Z,15.80
2019-03-10T08:23:51.648Z,15.90
2019-03-10T08:26:17.798Z,15.90
2019-03-10T08:28:43.949Z,15.90
2019-03-10T08:31:10.110Z,15.90
2019-03-10T08:33:36.474Z,16.00
2019-03-10T08:36:02.633Z,16.00
2019-03-10T08:38:28.781Z,16.10
2019-03-10T08:40:54.932Z,16.10
2019-03-10T08:43:21.841Z,16.20
2019-03-10T08:45:47.991Z,16.20
2019-03-10T08:48:14.162Z,16.10
2019-03-10T08:50:40.349Z,16.20
2019-03-10T08:53:06.531Z,16.10
2019-03-10T08:55:32.850Z,16.30
2019-03-10T08:57:59.000Z,16.30
2019-03-10T09:00:25.152Z,16.30
2019-03-10T09:02:52.068Z,16.40
2019-03-10T09:05:18.220Z,16.40
2019-03-10T09:07:44.374Z,16.40
2019-03-10T09:10:10.524Z,16.40
2019-03-10T09:12:36.676Z,16.40
2019-03-10T09:15:02.830Z,16.50
2019-03-10T09:17:28.990Z,16.50
2019-03-10T09:19:55.137Z,16.50
2019-03-10T09:22:21.285Z,16.50
2019-03-10T09:24:47.446Z,16.50
2019-03-10T09:27:13.601Z,16.50
2019-03-10T09:29:39.759Z,16.60
2019-03-10T09:32:05.914Z,16.70
2019-03-10T09:34:32.074Z,16.70
2019-03-10T09:36:58.223Z,16.70
2019-03-10T09:39:24.407Z,16.70
2019-03-10T09:41:50.567Z,16.80
2019-03-10T09:44:16.718Z,16.80
2019-03-10T09:46:42.868Z,16.80
2019-03-10T09:49:09.018Z,16.90
2019-03-10T09:51:35.169Z,16.90
2019-03-10T09:54:01.313Z,16.90
2019-03-10T09:56:27.469Z,16.90
2019-03-10T09:58:53.616Z,17.00
2019-03-10T10:01:19.786Z,17.10
2019-03-10T10:03:45.934Z,17.00
2019-03-10T10:06:12.160Z,17.10
2019-03-10T10:08:38.332Z,17.10
2019-03-10T10:11:04.488Z,17.00
2019-03-10T10:13:30.634Z,17.10
2019-03-10T10:15:56.841Z,17.20
2019-03-10T10:18:23.017Z,17.10
2019-03-10T10:20:49.196Z,17.20
2019-03-10T10:23:15.349Z,17.30
2019-03-10T10:25:41.530Z,17.30
2019-03-10T10:28:07.688Z,17.30
2019-03-10T10:30:33.860Z,17.30
2019-03-10T10:33:00.025Z,17.40
2019-03-10T10:35:26.194Z,17.40
2019-03-10T10:37:52.349Z,17.40
2019-03-10T10:40:18.605Z,17.40
2019-03-10T10:42:44.760Z,17.50
2019-03-10T10:45:10.909Z,17.50
2019-03-10T10:47:37.057Z,17.50
2019-03-10T10:50:03.217Z,17.50
2019-03-10T10:52:29.402Z,17.50
2019-03-10T10:54:55.588Z,17.50
2019-03-10T10:57:21.771Z,17.50
2019-03-10T10:59:47.929Z,17.70
2019-03-10T11:02:14.096Z,17.70
2019-03-10T11:04:40.254Z,17.60
2019-03-10T11:07:06.434Z,17.60
2019-03-10T11:09:32.588Z,17.70
2019-03-10T11:11:59.293Z,17.80
2019-03-10T11:14:25.440Z,17.70
2019-03-10T11:16:51.609Z,17.70
2019-03-10T11:19:17.764Z,17.70
2019-03-10T11:21:43.945Z,17.70
2019-03-10T11:24:10.116Z,17.60
2019-03-10T11:26:36.269Z,17.70
2019-03-10T11:29:03.904Z,17.70
2019-03-10T11:31:28.652Z,17.60
2019-03-10T11:33:54.812Z,17.60
2019-03-10T11:36:20.968Z,17.60
2019-03-10T11:38:47.137Z,17.60
2019-03-10T11:41:13.312Z,17.60
2019-03-10T11:43:40.220Z,17.60
2019-03-10T11:46:06.397Z,17.60
2019-03-10T11:48:32.564Z,17.60
2019-03-10T11:50:58.718Z,17.60
2019-03-10T11:53:25.838Z,17.60
2019-03-10T11:55:51.091Z,17.60
2019-03-10T11:58:18.077Z,17.50
2019-03-10T12:00:44.222Z,17.50
2019-03-10T12:03:10.371Z,17.50
2019-03-10T12:05:36.530Z,17.50
2019-03-10T12:08:02.684Z,17.50
2019-03-10T12:10:28.837Z,17.40
2019-03-10T12:12:54.980Z,17.40
2019-03-10T12:15:21.132Z,17.50
2019-03-10T12:17:47.288Z,17.40
2019-03-10T12:20:13.434Z,17.50
2019-03-10T12:22:39.585Z,17.50
2019-03-10T12:25:06.524Z,17.40
2019-03-10T12:27:32.669Z,17.40
2019-03-10T12:29:58.844Z,17.50
2019-03-10T12:32:24.988Z,17.50
2019-03-10T12:34:51.152Z,17.50
2019-03-10T12:37:17.308Z,17.40
2019-03-10T12:39:43.485Z,17.40
2019-03-10T12:42:14.547Z,17.40
2019-03-10T12:44:40.717Z,17.40
2019-03-10T12:47:06.864Z,17.40
2019-03-10T12:49:33.039Z,17.40
2019-03-10T12:51:59.199Z,17.40
2019-03-10T12:54:25.336Z,17.40
2019-03-10T12:56:51.488Z,17.40
2019-03-10T12:59:17.641Z,17.50
2019-03-10T13:01:43.792Z,17.50
2019-03-10T13:04:09.941Z,17.50
2019-03-10T13:06:36.090Z,17.50
2019-03-10T13:09:02.261Z,17.50
2019-03-10T13:11:28.396Z,17.60
2019-03-10T13:13:54.545Z,17.50
2019-03-10T13:16:20.696Z,17.50
2019-03-10T13:18:46.852Z,17.50
2019-03-10T13:21:13.001Z,17.50
2019-03-10T13:23:39.154Z,17.50
2019-03-10T13:26:05.307Z,17.50
2019-03-10T13:28:31.478Z,17.50
2019-03-10T13:30:57.650Z,17.50
2019-03-10T13:33:23.828Z,17.50
2019-03-10T13:35:49.993Z,17.50
2019-03-10T13:38:16.146Z,17.50
2019-03-10T13:40:42.315Z,17.40
2019-03-10T13:43:08.478Z,17.40
2019-03-10T13:45:34.653Z,17.40
2019-03-10T13:48:00.820Z,17.40
2019-03-10T13:50:27.734Z,17.40
2019-03-10T13:52:53.899Z,17.40
2019-03-10T13:55:20.053Z,17.40
2019-03-10T13:57:46.206Z,17.40
2019-03-10T14:00:12.597Z,17.40
2019-03-10T14:02:38.753Z,17.30
2019-03-10T14:05:04.904Z,17.30
2019-03-10T14:07:31.069Z,17.30
2019-03-10T14:09:57.226Z,17.20
2019-03-10T14:12:23.397Z,17.20
2019-03-10T14:14:49.561Z,17.30
2019-03-10T14:17:15.751Z,17.20
2019-03-10T14:19:41.916Z,17.20
2019-03-10T14:22:08.088Z,17.20
2019-03-10T14:24:34.239Z,17.20
2019-03-10T14:27:01.181Z,17.20
2019-03-10T14:29:27.326Z,17.10
2019-03-10T14:31:53.496Z,17.10
2019-03-10T14:34:19.669Z,17.20
2019-03-10T14:36:45.840Z,17.20
2019-03-10T14:39:12.001Z,17.10
2019-03-10T14:41:38.938Z,17.10
2019-03-10T14:44:05.138Z,17.00
2019-03-10T14:46:32.057Z,16.90
2019-03-10T14:48:58.213Z,17.00
2019-03-10T14:51:24.366Z,17.00
2019-03-10T14:53:50.514Z,16.90
2019-03-10T14:56:16.674Z,16.80
2019-03-10T14:58:42.824Z,16.80
2019-03-10T15:01:09.000Z,16.80
2019-03-10T15:03:35.160Z,16.70
2019-03-10T15:06:01.334Z,16.80
2019-03-10T15:08:28.250Z,16.80
2019-03-10T15:10:54.424Z,16.80
2019-03-10T15:13:20.608Z,16.80
2019-03-10T15:15:46.753Z,16.80
2019-03-10T15:18:12.926Z,16.80
2019-03-10T15:20:39.065Z,16.70
2019-03-10T15:23:05.297Z,16.60
2019-03-10T15:25:31.452Z,16.70
2019-03-10T15:27:57.628Z,16.70
2019-03-10T15:30:23.780Z,16.70
2019-03-10T15:32:49.973Z,16.70
2019-03-10T15:35:16.229Z,16.70
2019-03-10T15:37:42.403Z,16.70
2019-03-10T15:40:08.570Z,16.80
2019-03-10T15:42:34.804Z,16.80
2019-03-10T15:45:00.956Z,16.80
2019-03-10T15:47:27.235Z,16.80
2019-03-10T15:49:53.408Z,16.80
2019-03-10T15:52:19.557Z,16.70
2019-03-10T15:54:45.717Z,16.70
2019-03-10T15:57:11.869Z,16.80
2019-03-10T15:59:38.036Z,16.90
2019-03-10T16:02:04.194Z,16.80
2019-03-10T16:04:30.365Z,16.80
2019-03-10T16:06:56.531Z,16.80
2019-03-10T16:09:22.698Z,16.80
2019-03-10T16:11:48.866Z,16.80
2019-03-10T16:14:15.160Z,16.80
2019-03-10T16:16:41.314Z,16.80
2019-03-10T16:19:07.464Z,16.80
2019-03-10T16:21:33.621Z,16.80
2019-03-10T16:23:59.770Z,16.80
2019-03-10T16:26:25.921Z,16.90
2019-03-10T16:28:52.093Z,16.80
2019-03-10T16:31:18.236Z,16.80
2019-03-10T16:33:44.398Z,16.80
2019-03-10T16:36:10.702Z,16.80
2019-03-10T16:38:36.860Z,16.90
2019-03-10T16:41:03.018Z,16.90
2019-03-10T16:43:32.461Z,16.90
2019-03-10T16:45:58.613Z,16.90
2019-03-10T16:48:24.839Z,17.00
2019-03-10T16:50:51.047Z,17.00
2019-03-10T16:53:17.206Z,16.90
2019-03-10T16:55:43.373Z,16.90
2019-03-10T16:58:09.533Z,16.90
2019-03-10T17:00:35.706Z,17.00
2019-03-10T17:03:01.866Z,17.00
2019-03-10T17:05:28.028Z,17.00
2019-03-10T17:07:54.167Z,17.00
2019-03-10T17:10:20.338Z,17.00
2019-03-10T17:12:46.486Z,17.00
2019-03-10T17:15:12.636Z,17.10
2019-03-10T17:17:39.707Z,17.20
2019-03-10T17:20:05.857Z,17.20
2019-03-10T17:22:32.009Z,17.20
2019-03-10T17:24:58.156Z,17.30
2019-03-10T17:27:24.309Z,17.20
2019-03-10T17:29:50.548Z,17.30
2019-03-10T17:32:16.700Z,17.40
2019-03-10T17:34:42.857Z,17.50
2019-03-10T17:37:09.781Z,17.60
2019-03-10T17:39:35.932Z,17.50
2019-03-10T17:42:02.108Z,17.60
2019-03-10T17:44:28.256Z,17.60
2019-03-10T17:46:54.416Z,17.60
2019-03-10T17:49:21.328Z,17.70
2019-03-10T17:51:47.529Z,17.70
2019-03-10T17:54:13.746Z,17.80
2019-03-10T17:56:39.918Z,17.70
2019-03-10T17:59:06.075Z,17.80
2019-03-10T18:01:32.253Z,17.90
2019-03-10T18:03:58.518Z,17.90
2019-03-10T18:06:24.688Z,18.00
2019-03-10T18:08:50.838Z,18.10
2019-03-10T18:11:16.981Z,18.10
2019-03-10T18:13:43.126Z,18.10
2019-03-10T18:16:09.272Z,18.10
2019-03-10T18:18:35.438Z,17.90
2019-03-10T18:21:01.853Z,17.70
2019-03-10T18:23:27.997Z,17.30
2019-03-10T18:25:54.144Z,17.50
2019-03-10T18:28:20.288Z,17.60
2019-03-10T18:30:46.451Z,17.70
2019-03-10T18:33:12.616Z,17.70
2019-03-10T18:35:38.773Z,17.70
2019-03-10T18:38:06.725Z,17.70
2019-03-10T18:40:32.946Z,17.70
2019-03-10T18:42:59.115Z,17.70
2019-03-10T18:45:25.264Z,17.60
2019-03-10T18:47:51.437Z,17.50
2019-03-10T18:50:17.779Z,17.50
2019-03-10T18:52:43.950Z,17.40
2019-03-10T18:55:10.157Z,17.40
2019-03-10T18:57:36.392Z,17.30
2019-03-10T19:00:02.548Z,17.20
2019-03-10T19:02:28.702Z,17.20
2019-03-10T19:04:54.859Z,17.10
2019-03-10T19:07:21.019Z,17.10
2019-03-10T19:09:47.176Z,17.00
2019-03-10T19:12:13.329Z,16.90
2019-03-10T19:14:39.495Z,16.90
2019-03-10T19:17:05.677Z,16.80
2019-03-10T19:19:32.104Z,16.80
2019-03-10T19:21:58.784Z,16.70
2019-03-10T19:24:24.938Z,16.60
2019-03-10T19:26:51.093Z,16.60
2019-03-10T19:29:17.245Z,16.60
2019-03-10T19:31:43.392Z,16.60
2019-03-10T19:34:09.538Z,16.50
2019-03-10T19:36:35.693Z,16.50
2019-03-10T19:39:01.879Z,16.50
2019-03-10T19:41:28.029Z,16.40
2019-03-10T19:43:54.177Z,16.40
2019-03-10T19:46:20.334Z,16.40
2019-03-10T19:48:46.491Z,16.40
2019-03-10T19:51:12.637Z,16.40
2019-03-10T19:53:38.786Z,16.30
2019-03-10T19:56:04.941Z,16.30
2019-03-10T19:58:31.095Z,16.30
2019-03-10T20:00:58.012Z,16.20
2019-03-10T20:03:24.156Z,16.20
2019-03-10T20:05:50.301Z,16.20
2019-03-10T20:08:16.451Z,16.20
2019-03-10T20:10:44.916Z,16.20
2019-03-10T20:13:11.089Z,16.10
2019-03-10T20:15:37.256Z,16.10
2019-03-10T20:18:03.405Z,16.10
2019-03-10T20:20:29.571Z,16.10
2019-03-10T20:22:55.731Z,16.00
2019-03-10T20:25:21.888Z,16.10
2019-03-10T20:27:48.047Z,16.00
2019-03-10T20:30:14.218Z,16.00
2019-03-10T20:32:40.369Z,16.00
2019-03-10T20:35:06.588Z,16.00
2019-03-10T20:37:32.757Z,16.00
2019-03-10T20:39:59.681Z,15.90
2019-03-10T20:42:26.605Z,15.80
2019-03-10T20:44:52.757Z,15.80
2019-03-10T20:47:18.915Z,15.80
2019-03-10T20:49:45.073Z,15.70
2019-03-10T20:52:11.226Z,15.70
2019-03-10T20:54:37.377Z,15.60
2019-03-10T20:57:03.551Z,15.60
2019-03-10T20:59:29.711Z,15.60
2019-03-10T21:01:55.870Z,15.60
2019-03-10T21:04:22.910Z,15.60
2019-03-10T21:06:48.225Z,15.60
2019-03-10T21:09:14.372Z,15.60
2019-03-10T21:11:40.541Z,15.60
2019-03-10T21:14:06.692Z,15.60
2019-03-10T21:16:33.354Z,15.60
2019-03-10T21:18:59.501Z,15.60
2019-03-10T21:21:25.681Z,15.60
2019-03-10T21:23:51.839Z,15.60
2019-03-10T21:26:20.806Z,15.60
2019-03-10T21:28:46.960Z,15.60
2019-03-10T21:31:13.108Z,15.60
2019-03-10T21:33:39.269Z,15.60
2019-03-10T21:36:06.189Z,15.60
2019-03-10T21:38:32.341Z,15.60
2019-03-10T21:40:58.492Z,15.60
2019-03-10T21:43:24.643Z,15.60
2019-03-10T21:45:50.796Z,15.60
2019-03-10T21:48:17.708Z,15.60
2019-03-10T21:50:43.852Z,15.60
2019-03-10T21:53:10.006Z,15.50
2019-03-10T21:55:36.156Z,15.50
2019-03-10T21:58:02.338Z,15.50
2019-03-10T22:00:29.266Z,15.50
2019-03-10T22:02:55.432Z,15.50
2019-03-10T22:05:21.586Z,15.50
2019-03-10T22:07:47.752Z,15.50
2019-03-10T22:10:13.894Z,15.50
2019-03-10T22:12:40.088Z,15.50
2019-03-10T22:15:06.254Z,15.50
2019-03-10T22:17:32.410Z,15.50
2019-03-10T22:19:58.557Z,15.50
2019-03-10T22:22:24.715Z,15.50
2019-03-10T22:24:50.865Z,15.50
2019-03-10T22:27:17.008Z,15.50
2019-03-10T22:29:43.170Z,15.50
2019-03-10T22:32:09.319Z,15.50
2019-03-10T22:34:35.461Z,15.40
2019-03-10T22:37:01.619Z,15.40
2019-03-10T22:39:27.767Z,15.40
2019-03-10T22:41:53.926Z,15.40
2019-03-10T22:44:20.068Z,15.40
2019-03-10T22:46:46.221Z,15.40
2019-03-10T22:49:12.389Z,15.40
2019-03-10T22:51:38.549Z,15.40
2019-03-10T22:54:04.714Z,15.40
2019-03-10T22:56:30.864Z,15.40
2019-03-10T22:58:57.021Z,15.40
2019-03-10T23:01:23.164Z,15.40
2019-03-10T23:03:50.359Z,15.40
2019-03-10T23:06:16.516Z,15.30
2019-03-10T23:08:42.679Z,15.40
2019-03-10T23:11:08.849Z,15.40
2019-03-10T23:13:35.012Z,15.40
2019-03-10T23:16:01.165Z,15.30
2019-03-10T23:18:27.314Z,15.40
2019-03-10T23:20:53.461Z,15.30
2019-03-10T23:23:19.620Z,15.30
2019-03-10T23:25:45.768Z,15.30
2019-03-10T23:28:11.924Z,15.30
2019-03-10T23:30:38.836Z,15.30
2019-03-10T23:33:04.987Z,15.20
2019-03-10T23:35:31.152Z,15.20
2019-03-10T23:37:57.312Z,15.20
2019-03-10T23:40:23.483Z,15.20
2019-03-10T23:42:50.401Z,15.20
2019-03-10T23:45:16.574Z,15.20
2019-03-10T23:47:42.723Z,15.20
2019-03-10T23:50:08.893Z,15.20
2019-03-10T23:52:35.044Z,15.20
2019-03-10T23:55:01.199Z,15.10
2019-03-10T23:57:27.352Z,15.10
2019-03-10T23:59:53.504Z,15.10
